Terminal Aerodrome Forecast
Issued by NWS

Current Version | Previous Version | Text Only | Print | Product List | Glossary On
Versions: 1 2 3 4 5 6 7 8 9 10 11 12 13 14 15 16 17
000
FTUS44 KLIX 230526
TAFMSY
TAF
KMSY 230526Z 2306/2412 13010KT P6SM SCT010 BKN020
      TEMPO 2306/2310 5SM BR BKN010
     FM231000 19009KT 5SM BR BKN010
     FM231500 13009KT P6SM BKN025
     FM231800 13010KT P6SM BKN030 PROB30 2318/2324 2SM -TSRA BR
      OVC020CB
     FM240000 13008KT P6SM BKN025 PROB30 2400/2403 4SM -TSRA BR
      OVC015CB
     FM240600 14007KT 5SM BR BKN015=

USA.gov is the U.S. government's official web portal to all federal, state and local government web resources and services.